Terminal Aerodrome Forecast
Issued by NWS

Home | Current Version | Previous Version | Text Only | Print | Product List | Glossary On
Versions: 1 2 3 4 5 6 7 8 9 10 11 12 13 14 15 16 17 18 19 20 21 22 23
495
FTUS44 KLZK 052358 CCA
TAFLIT
TAF COR
KLIT 052358Z 0600/0624 05008KT 4SM BR VCSH OVC010
      TEMPO 0600/0603 1SM -DZ BR OVC005
     FM060300 VRB05KT 3SM -RA BR VCTS BKN008 OVC012CB
      TEMPO 0603/0607 3/4SM SHRA BR OVC005
     FM060800 32007KT 2SM BR VCSH OVC008
     FM061200 32007KT 4SM -DZ BR OVC007
     FM061800 35010KT P6SM SCT015 OVC100=

USA.gov is the U.S. government's official web portal to all federal, state and local government web resources and services.